Pagrindinis puslapis
METAR-TAF:

METAR-TAF

Oro uostai :

Nueces County Airport

Robstown, Teksasas, Jungtinės Amerikos Valstijos

platuma: 27-46-42N, ilguma: 097-41-25W, Aukštis: 24 m

Dabartinis oras

Ataskaita buvo paskelbta 23 minutes, ne 04:15 UTC
Vėjas 12 kt iš Pietų/Pietryčių su gūsio iki 17 kt
Temperatūra 27°C
Drėgmė 89%
Slėgis 1013 hPa
Matomumas: 16.1 km
Išsisklaidę debesys ne aukštis 1500 ft
Su prošvaistėmis ne aukštis 2000 ft
Apsiniaukę ne aukštis 2600 ft

METAR: KRBO 170415Z AUTO 16012G17KT 10SM SCT015 BKN020 OVC026 27/25 A2990 RMK AO2 T02680248

Laikas: 23:38 (04:38 UTC)


TAF: trūkstamas

Orai ataskaitas ir orų prognozės (METAR, TAF).

turimą stotys yra geltonos ir raudonos taškus žemėlapyje.

Perkelti pele per norėdami pamatyti stoties vardą.

Tada spustelėkite, norėdami matyti oro stebėjimo ir prognozės.

Norėdami pakeisti žemėlapį: spustelėkite ant žalios mygtukų su juodo kryžiaus žemyn,; žalią mygtuką su brūkšneliu, jei norite nutolinti; arba žalių rodyklių gretimoms žemėlapius.


METAR-TAF: